Time;durP1;ratioP1;P1;durP2;ratioP2;P2;SDS_P1;SDS_P2;PMS_P1;PMS_P2;Temp;Humidity;BMP_temperature;BMP_pressure;BME280_temperature;BME280_humidity;BME280_pressure;Samples;Min_cycle;Max_cycle;Signal;HPM_P1;HPM_P2
2022/12/25 00:01:57;;;;;;;37.23;7.23;;;9.70;1.00;;;;;;5003805;28;20195;-66
2022/12/25 00:04:23;;;;;;;6.37;4.80;;;9.70;1.00;;;;;;5003721;28;20501;-66
2022/12/25 00:06:49;;;;;;;8.13;5.00;;;9.60;1.00;;;;;;5003899;28;20259;-66
2022/12/25 00:09:15;;;;;;;6.77;5.27;;;9.70;1.00;;;;;;5003551;28;20176;-62
2022/12/25 00:11:40;;;;;;;12.60;7.73;;;9.60;1.00;;;;;;5007830;28;20208;-64
2022/12/25 00:14:06;;;;;;;18.50;11.73;;;9.70;1.00;;;;;;5006039;28;20188;-65
2022/12/25 00:16:32;;;;;;;14.30;9.10;;;9.70;1.00;;;;;;4999534;28;20208;-66
2022/12/25 00:18:57;;;;;;;16.77;10.20;;;9.70;1.00;;;;;;4996884;28;20181;-64
2022/12/25 00:21:23;;;;;;;12.53;7.77;;;9.70;1.00;;;;;;5005287;28;20187;-63
2022/12/25 00:23:53;;;;;;;9.13;6.97;;;9.70;1.00;;;;;;5005243;28;20172;-64
2022/12/25 00:26:20;;;;;;;8.70;6.40;;;9.60;1.00;;;;;;4988369;28;21259;-67
2022/12/25 00:28:45;;;;;;;10.43;6.03;;;9.60;1.00;;;;;;4996917;28;20427;-67
2022/12/25 00:31:14;;;;;;;7.53;5.60;;;9.60;1.00;;;;;;5001997;28;20485;-66
2022/12/25 00:33:41;;;;;;;13.23;5.47;;;9.60;1.00;;;;;;5001857;28;20751;-66
2022/12/25 00:36:08;;;;;;;6.50;5.47;;;9.60;1.00;;;;;;5005645;28;20472;-65
2022/12/25 00:38:36;;;;;;;8.60;5.70;;;9.60;1.00;;;;;;5004206;28;20968;-66
2022/12/25 00:41:13;;;;;;;7.00;5.40;;;9.60;1.00;;;;;;4991904;28;20438;-66
2022/12/25 00:43:42;;;;;;;11.07;5.20;;;9.60;1.00;;;;;;4997576;28;20942;-65
2022/12/25 00:46:10;;;;;;;6.13;5.47;;;9.60;1.00;;;;;;5002128;28;20459;-66
2022/12/25 00:48:36;;;;;;;9.90;5.20;;;9.60;1.00;;;;;;5002925;28;20460;-67
2022/12/25 00:51:07;;;;;;;12.40;6.37;;;9.70;1.00;;;;;;5003821;28;20465;-66
2022/12/25 00:53:33;;;;;;;9.77;6.13;;;9.70;1.00;;;;;;4998391;28;20251;-65
2022/12/25 00:56:02;;;;;;;6.20;5.60;;;9.70;1.00;;;;;;5005713;28;20549;-65
2022/12/25 00:58:30;;;;;;;6.53;5.93;;;9.60;1.00;;;;;;5002817;28;20181;-65
2022/12/25 01:00:56;;;;;;;7.70;6.90;;;9.60;1.00;;;;;;5011325;28;20458;-64
2022/12/25 01:03:22;;;;;;;8.60;5.77;;;9.60;1.00;;;;;;4994891;28;20518;-66
2022/12/25 01:06:14;;;;;;;9.30;6.37;;;9.60;1.00;;;;;;5012173;28;20316;-65
2022/12/25 01:10:21;;;;;;;8.70;7.80;;;9.60;1.00;;;;;;4992637;28;20412;-64
2022/12/25 01:11:27;;;;;;;8.47;7.17;;;9.60;1.00;;;;;;4993368;28;20733;-66
2022/12/25 01:13:53;;;;;;;8.70;6.67;;;9.60;1.00;;;;;;4992965;28;21308;-67
2022/12/25 01:16:18;;;;;;;10.00;6.57;;;9.60;1.00;;;;;;4999240;28;20562;-64
2022/12/25 01:18:45;;;;;;;11.10;6.40;;;9.60;1.00;;;;;;5013515;28;20169;-65
2022/12/25 01:21:15;;;;;;;9.70;6.80;;;9.70;1.00;;;;;;5012703;28;20172;-64
2022/12/25 01:23:41;;;;;;;5.97;5.37;;;9.60;1.00;;;;;;5013022;28;20411;-66
2022/12/25 01:26:10;;;;;;;6.50;5.90;;;9.60;1.00;;;;;;5013420;28;20411;-65
2022/12/25 01:28:36;;;;;;;7.80;5.87;;;9.60;1.00;;;;;;5011661;28;20935;-65
2022/12/25 01:31:03;;;;;;;6.77;6.17;;;9.60;1.00;;;;;;5011308;28;20864;-65
2022/12/25 01:33:29;;;;;;;7.27;6.57;;;9.60;1.00;;;;;;5007676;28;21249;-66
2022/12/25 01:35:56;;;;;;;7.80;6.20;;;9.60;1.00;;;;;;5013937;28;20794;-64
2022/12/25 01:38:22;;;;;;;7.13;6.43;;;9.60;1.00;;;;;;5004259;28;20526;-64
2022/12/25 01:40:48;;;;;;;7.07;6.40;;;9.60;1.00;;;;;;5001960;28;20515;-66
2022/12/25 01:43:23;;;;;;;8.47;7.57;;;9.60;1.00;;;;;;5005077;28;20450;-65
2022/12/25 01:45:51;;;;;;;11.03;6.13;;;9.60;1.00;;;;;;5007190;28;20202;-62
2022/12/25 01:48:20;;;;;;;26.80;7.30;;;9.70;1.00;;;;;;5008623;28;20427;-65
2022/12/25 01:50:52;;;;;;;15.53;6.10;;;9.70;1.00;;;;;;4997659;28;20431;-65
2022/12/25 01:53:18;;;;;;;5.97;5.20;;;9.70;1.00;;;;;;5011297;28;21193;-64
2022/12/25 01:55:46;;;;;;;7.40;5.67;;;9.70;1.00;;;;;;5002247;28;20460;-65
2022/12/25 01:58:12;;;;;;;12.73;6.03;;;9.70;1.00;;;;;;4991496;28;20227;-65
2022/12/25 02:00:38;;;;;;;7.50;5.70;;;9.70;1.00;;;;;;5015622;28;20426;-65
2022/12/25 02:03:04;;;;;;;7.00;6.30;;;9.70;1.00;;;;;;5011946;28;20542;-65
2022/12/25 02:05:32;;;;;;;5.80;5.30;;;9.60;1.00;;;;;;5011594;28;20176;-66
2022/12/25 02:08:03;;;;;;;6.47;5.87;;;9.60;1.00;;;;;;5011234;28;20915;-65
2022/12/25 02:10:29;;;;;;;9.80;5.83;;;9.60;1.00;;;;;;4991682;28;20919;-66
2022/12/25 02:12:55;;;;;;;11.83;5.40;;;9.60;1.00;;;;;;5011142;28;20502;-64
2022/12/25 02:15:26;;;;;;;13.87;5.73;;;9.60;1.00;;;;;;5011251;28;20267;-65
2022/12/25 02:18:16;;;;;;;10.93;5.73;;;9.60;1.00;;;;;;5010501;28;20477;-65
2022/12/25 02:21:08;;;;;;;8.37;5.70;;;9.60;1.00;;;;;;5011002;28;20438;-66
2022/12/25 02:23:53;;;;;;;5.90;5.27;;;9.60;1.00;;;;;;5006833;28;20870;-66
2022/12/25 02:26:25;;;;;;;6.13;5.53;;;9.60;1.00;;;;;;5008193;28;20509;-67
2022/12/25 02:29:20;;;;;;;7.13;5.33;;;9.60;1.00;;;;;;5007323;28;20430;-66
2022/12/25 02:31:53;;;;;;;10.40;5.57;;;9.60;1.00;;;;;;5002807;28;20757;-65
2022/12/25 02:34:43;;;;;;;12.70;6.47;;;9.60;1.00;;;;;;5004437;28;20419;-66
2022/12/25 02:37:14;;;;;;;6.43;5.83;;;9.60;1.00;;;;;;5007097;28;20454;-66
2022/12/25 02:39:57;;;;;;;8.60;6.57;;;9.60;1.00;;;;;;5007425;28;20423;-67
2022/12/25 03:08:21;;;;;;;17.53;7.13;;;9.40;1.00;;;;;;5007151;28;20508;-65
2022/12/25 03:13:50;;;;;;;7.80;5.83;;;9.60;1.00;;;;;;5029296;23;20568;-64
2022/12/25 03:26:53;;;;;;;6.30;5.60;;;9.60;1.00;;;;;;5004709;28;20450;-64
2022/12/25 03:27:15;;;;;;;12.93;6.03;;;9.60;1.00;;;;;;4987081;28;20431;-64
2022/12/25 03:32:46;;;;;;;6.73;5.73;;;9.70;1.00;;;;;;4986247;28;20458;-64
2022/12/25 03:35:24;;;;;;;9.53;5.67;;;9.60;1.00;;;;;;4987475;28;20436;-64
2022/12/25 04:36:38;;;;;;;11.20;6.73;;;9.60;1.00;;;;;;4989991;28;20478;-65
2022/12/25 04:39:04;;;;;;;25.93;7.73;;;9.50;1.00;;;;;;4990336;28;20439;-66
2022/12/25 04:41:30;;;;;;;17.87;7.10;;;9.50;1.00;;;;;;4989781;28;20173;-66
2022/12/25 04:43:55;;;;;;;10.13;6.80;;;9.60;1.00;;;;;;4989964;28;20610;-65
2022/12/25 04:46:21;;;;;;;15.10;7.50;;;9.50;1.00;;;;;;4991193;28;20191;-65
2022/12/25 04:48:47;;;;;;;10.23;7.50;;;9.40;1.00;;;;;;4989489;28;20204;-66
2022/12/25 04:51:24;;;;;;;10.43;7.37;;;9.40;1.00;;;;;;4988711;28;20188;-66
2022/12/25 04:53:50;;;;;;;13.27;7.00;;;9.40;1.00;;;;;;4989691;28;20291;-66
2022/12/25 04:56:17;;;;;;;7.90;6.50;;;9.40;1.00;;;;;;4984901;28;20860;-66
2022/12/25 04:58:43;;;;;;;10.13;6.37;;;9.40;1.00;;;;;;4989815;28;20451;-66
2022/12/25 05:01:10;;;;;;;15.20;7.43;;;9.40;1.00;;;;;;4988853;28;20443;-66
2022/12/25 05:03:36;;;;;;;14.10;8.10;;;9.40;1.00;;;;;;4989997;28;20462;-66
2022/12/25 05:06:02;;;;;;;11.07;7.33;;;9.40;1.00;;;;;;4990954;28;20483;-66
2022/12/25 05:08:30;;;;;;;7.60;6.80;;;9.40;1.00;;;;;;4983968;28;20443;-66
2022/12/25 05:10:56;;;;;;;7.60;6.90;;;9.50;1.00;;;;;;4990112;28;20535;-66
2022/12/25 05:13:21;;;;;;;7.77;6.97;;;9.50;1.00;;;;;;4983415;28;21276;-65
2022/12/25 05:15:47;;;;;;;8.10;7.30;;;9.50;1.00;;;;;;4988533;28;20459;-65
2022/12/25 05:18:13;;;;;;;12.60;7.40;;;9.50;1.00;;;;;;4989347;28;20181;-66
2022/12/25 05:20:39;;;;;;;11.63;8.20;;;9.50;1.00;;;;;;4989146;28;20249;-65
2022/12/25 05:23:04;;;;;;;7.70;6.90;;;9.50;1.00;;;;;;4984623;28;20543;-65
2022/12/25 05:25:30;;;;;;;7.47;6.70;;;9.40;1.00;;;;;;4990283;28;20185;-65
2022/12/25 05:27:56;;;;;;;7.90;6.10;;;9.40;1.00;;;;;;4988514;28;20188;-66
2022/12/25 05:30:21;;;;;;;7.57;6.73;;;9.40;1.00;;;;;;4987753;28;20215;-66
2022/12/25 05:32:48;;;;;;;9.90;6.87;;;9.40;1.00;;;;;;4986816;28;20280;-66
2022/12/25 05:35:13;;;;;;;9.07;7.23;;;9.50;1.00;;;;;;4989182;28;20579;-65
2022/12/25 05:37:39;;;;;;;7.87;7.07;;;9.40;1.00;;;;;;4985131;28;20517;-66
2022/12/25 05:40:06;;;;;;;8.00;6.70;;;9.40;1.00;;;;;;4990038;28;20192;-66
2022/12/25 05:42:32;;;;;;;7.70;6.90;;;9.40;1.00;;;;;;4989660;28;20192;-65
2022/12/25 05:44:58;;;;;;;9.00;6.97;;;9.30;1.00;;;;;;4989775;28;21118;-66
2022/12/25 05:47:24;;;;;;;8.23;7.27;;;9.20;1.00;;;;;;4990591;28;20428;-66
2022/12/25 05:49:49;;;;;;;12.80;8.50;;;9.20;1.00;;;;;;4990550;28;20176;-66
2022/12/25 05:52:15;;;;;;;8.63;7.17;;;9.30;1.00;;;;;;4989753;28;20197;-66
2022/12/25 05:54:41;;;;;;;7.90;6.70;;;9.20;1.00;;;;;;4990357;28;20208;-65
2022/12/25 05:57:06;;;;;;;11.00;7.27;;;9.20;1.00;;;;;;4990477;28;20200;-65
2022/12/25 05:59:32;;;;;;;8.53;7.20;;;9.30;1.00;;;;;;4990197;28;20169;-66
2022/12/25 06:01:58;;;;;;;10.20;7.23;;;9.30;1.00;;;;;;4989454;28;20961;-66
2022/12/25 06:04:25;;;;;;;7.57;6.87;;;9.30;1.00;;;;;;4989710;28;20458;-66
2022/12/25 06:06:52;;;;;;;8.90;8.00;;;9.30;1.00;;;;;;4988233;28;20440;-66
2022/12/25 06:09:17;;;;;;;12.93;7.40;;;9.40;1.00;;;;;;4988868;28;20455;-66
2022/12/25 06:11:44;;;;;;;9.80;7.43;;;9.40;1.00;;;;;;4987336;28;20533;-65
2022/12/25 06:14:14;;;;;;;14.20;7.83;;;9.30;1.00;;;;;;4989506;28;20181;-66
2022/12/25 06:16:40;;;;;;;15.03;7.97;;;9.40;1.00;;;;;;4987488;28;20551;-66
2022/12/25 06:19:05;;;;;;;8.80;7.43;;;9.40;1.00;;;;;;4988751;28;20523;-65
2022/12/25 06:21:31;;;;;;;11.00;8.23;;;9.40;1.00;;;;;;4988312;28;20479;-66
2022/12/25 06:23:59;;;;;;;8.90;7.67;;;9.40;1.00;;;;;;4989221;28;20243;-66
2022/12/25 06:26:25;;;;;;;8.40;7.60;;;9.40;1.00;;;;;;4988414;28;20214;-66
2022/12/25 06:28:51;;;;;;;11.50;7.60;;;9.40;1.00;;;;;;4987596;28;20939;-65
2022/12/25 06:31:19;;;;;;;10.33;9.30;;;9.40;1.00;;;;;;4987387;28;20271;-64
2022/12/25 06:33:45;;;;;;;8.33;7.53;;;9.40;1.00;;;;;;4987097;28;20542;-65
2022/12/25 06:36:14;;;;;;;66.17;12.60;;;9.40;1.00;;;;;;4987658;28;20575;-66
2022/12/25 06:38:40;;;;;;;20.03;9.03;;;9.40;1.00;;;;;;4988100;28;20539;-66
2022/12/25 06:41:09;;;;;;;12.13;9.20;;;9.40;1.00;;;;;;4987135;28;20451;-66
2022/12/25 06:43:35;;;;;;;17.50;8.97;;;9.40;1.00;;;;;;4987032;28;21016;-65
2022/12/25 06:46:06;;;;;;;18.77;8.90;;;9.30;1.00;;;;;;4988761;28;20504;-64
2022/12/25 06:48:33;;;;;;;11.20;7.37;;;9.40;1.00;;;;;;4988554;28;20540;-63
2022/12/25 06:50:59;;;;;;;21.13;8.30;;;9.40;1.00;;;;;;4986051;28;20443;-64
2022/12/25 06:53:25;;;;;;;12.30;7.87;;;9.40;1.00;;;;;;4988189;28;20550;-64
2022/12/25 06:55:50;;;;;;;12.20;8.77;;;9.40;1.00;;;;;;4987894;28;20562;-64
2022/12/25 06:58:16;;;;;;;9.10;7.60;;;9.40;1.00;;;;;;4986275;28;20180;-65
2022/12/25 07:00:42;;;;;;;9.70;8.60;;;9.30;1.00;;;;;;4987612;28;20177;-65
2022/12/25 07:03:08;;;;;;;61.90;12.70;;;9.20;1.00;;;;;;4988860;28;20197;-64
2022/12/25 07:05:33;;;;;;;17.57;10.80;;;9.30;1.00;;;;;;4989326;28;20173;-65
2022/12/25 07:07:59;;;;;;;30.27;12.60;;;9.20;1.00;;;;;;4988871;28;20173;-65
2022/12/25 07:10:25;;;;;;;67.60;15.73;;;9.30;1.00;;;;;;4988663;28;20189;-65
2022/12/25 07:12:50;;;;;;;30.30;9.00;;;9.30;1.00;;;;;;4987956;28;20802;-64
2022/12/25 07:15:16;;;;;;;29.10;12.00;;;9.30;1.00;;;;;;4989126;28;20410;-65
2022/12/25 07:17:42;;;;;;;38.40;13.20;;;9.40;1.00;;;;;;4979502;28;20307;-64
2022/12/25 07:20:08;;;;;;;9.90;8.90;;;9.40;1.00;;;;;;4969242;28;20174;-65
2022/12/25 07:22:34;;;;;;;29.13;11.73;;;9.20;1.00;;;;;;4968627;28;20746;-64
2022/12/25 07:24:59;;;;;;;18.10;8.87;;;9.10;1.00;;;;;;4969659;28;20424;-64
2022/12/25 07:27:25;;;;;;;72.90;17.53;;;9.10;1.00;;;;;;4969199;28;20181;-64
2022/12/25 07:29:51;;;;;;;12.83;9.40;;;9.20;1.00;;;;;;4979071;28;20185;-65
2022/12/25 07:32:17;;;;;;;15.70;9.17;;;9.00;1.00;;;;;;4985645;28;20208;-65
2022/12/25 07:34:42;;;;;;;25.17;10.43;;;9.10;1.00;;;;;;4985616;28;20191;-64
2022/12/25 07:37:08;;;;;;;35.30;12.33;;;9.10;1.00;;;;;;4986138;28;20216;-65
2022/12/25 07:39:34;;;;;;;11.27;9.70;;;9.30;1.00;;;;;;4987702;28;20191;-66
2022/12/25 07:42:00;;;;;;;21.30;10.80;;;9.40;1.00;;;;;;4986737;28;20359;-64
2022/12/25 07:44:25;;;;;;;40.07;11.47;;;9.40;1.00;;;;;;4987023;28;20188;-65
2022/12/25 07:46:51;;;;;;;33.17;11.80;;;9.60;1.00;;;;;;4986771;28;20195;-65
2022/12/25 07:49:17;;;;;;;26.57;10.10;;;9.70;1.00;;;;;;4987043;28;20216;-65
2022/12/25 07:51:42;;;;;;;21.53;9.83;;;10.10;1.00;;;;;;4986319;28;20185;-64
2022/12/25 07:54:08;;;;;;;11.40;9.90;;;10.30;1.00;;;;;;4986486;28;20571;-64
2022/12/25 07:56:33;;;;;;;26.63;10.37;;;10.90;1.00;;;;;;4986758;28;20614;-64
2022/12/25 07:58:59;;;;;;;14.90;10.43;;;11.40;99.90;;;;;;4986294;28;20181;-64
2022/12/25 08:01:26;;;;;;;15.63;9.97;;;11.50;1.00;;;;;;4985623;28;20196;-64
2022/12/25 08:03:54;;;;;;;42.87;11.67;;;11.20;1.00;;;;;;4984989;28;20296;-65
2022/12/25 08:06:22;;;;;;;40.47;12.37;;;10.70;99.90;;;;;;4978054;28;20448;-65
2022/12/25 08:08:47;;;;;;;21.80;10.73;;;10.70;99.90;;;;;;4984528;28;20534;-64
2022/12/25 08:11:14;;;;;;;13.40;9.43;;;10.50;1.00;;;;;;4987933;28;20606;-64
2022/12/25 08:13:40;;;;;;;24.67;10.90;;;10.30;1.00;;;;;;4988517;28;20212;-65
2022/12/25 08:16:08;;;;;;;11.00;9.70;;;10.40;1.00;;;;;;4996095;28;20479;-65
2022/12/25 08:18:35;;;;;;;12.47;10.53;;;10.60;1.00;;;;;;4991708;28;20482;-64
2022/12/25 08:21:04;;;;;;;18.10;10.60;;;11.10;1.00;;;;;;4988948;28;20566;-65
2022/12/25 08:23:29;;;;;;;30.07;12.70;;;11.40;99.90;;;;;;4990088;28;20455;-65
2022/12/25 08:26:03;;;;;;;29.63;11.70;;;12.50;1.00;;;;;;4991219;28;20432;-66
2022/12/25 08:28:29;;;;;;;25.50;11.80;;;13.80;99.90;;;;;;4987724;28;20188;-66
2022/12/25 08:30:55;;;;;;;13.33;10.03;;;14.40;99.90;;;;;;4989872;28;20436;-66
2022/12/25 08:33:21;;;;;;;18.37;11.57;;;14.70;26.40;;;;;;4990529;28;20209;-65
2022/12/25 08:35:46;;;;;;;23.87;11.43;;;14.70;1.00;;;;;;4990990;28;20452;-66
2022/12/25 08:38:12;;;;;;;25.50;12.30;;;14.70;1.00;;;;;;4989234;28;20193;-66
2022/12/25 08:40:38;;;;;;;21.70;11.17;;;15.20;1.00;;;;;;4989574;28;20436;-66
2022/12/25 08:43:03;;;;;;;18.93;12.03;;;15.60;1.00;;;;;;4988146;28;20288;-65
2022/12/25 08:45:30;;;;;;;17.97;12.33;;;15.50;1.00;;;;;;4986972;28;20181;-66
2022/12/25 08:47:56;;;;;;;13.87;10.90;;;16.40;1.00;;;;;;4989670;28;20188;-66
2022/12/25 08:50:23;;;;;;;30.27;12.67;;;17.20;1.00;;;;;;4989450;28;20552;-66
2022/12/25 08:52:48;;;;;;;11.63;10.53;;;16.90;1.00;;;;;;4988515;28;20451;-66
2022/12/25 08:55:14;;;;;;;18.60;11.90;;;17.10;1.00;;;;;;4989702;28;20432;-66
2022/12/25 08:57:40;;;;;;;23.87;12.93;;;17.80;99.90;;;;;;4988232;28;20214;-66
2022/12/25 09:00:07;;;;;;;19.97;11.60;;;18.60;99.90;;;;;;4990304;28;20195;-66
2022/12/25 09:02:33;;;;;;;20.93;12.00;;;19.20;99.90;;;;;;4989321;28;20487;-66
2022/12/25 09:04:59;;;;;;;27.67;13.30;;;18.50;99.90;;;;;;4990060;28;20739;-66
2022/12/25 09:07:24;;;;;;;19.97;12.10;;;18.80;99.90;;;;;;4989596;28;20196;-66
2022/12/25 09:09:50;;;;;;;14.60;11.87;;;19.20;99.90;;;;;;4989587;28;20189;-66
2022/12/25 09:12:16;;;;;;;16.60;12.70;;;18.60;99.90;;;;;;4989460;28;21029;-65
2022/12/25 09:14:41;;;;;;;17.07;13.10;;;18.70;99.90;;;;;;4992459;28;20232;-64
2022/12/25 09:17:07;;;;;;;18.17;13.37;;;18.20;99.90;;;;;;4990963;28;20252;-65
2022/12/25 09:19:33;;;;;;;15.13;13.60;;;17.70;99.90;;;;;;4990839;28;20179;-64
2022/12/25 09:21:59;;;;;;;20.50;13.73;;;17.40;99.90;;;;;;4989716;28;20197;-66
2022/12/25 09:24:24;;;;;;;24.03;14.13;;;17.70;99.90;;;;;;4990431;28;20531;-65
2022/12/25 09:26:50;;;;;;;158.60;28.77;;;18.10;99.90;;;;;;4990418;28;20216;-65
2022/12/25 09:29:16;;;;;;;28.17;16.37;;;18.00;99.90;;;;;;4989819;28;20192;-65
2022/12/25 09:31:42;;;;;;;70.17;18.73;;;17.40;99.90;;;;;;4986841;28;20992;-64
2022/12/25 09:34:09;;;;;;;20.40;13.27;;;17.30;99.90;;;;;;4988241;28;20534;-64
2022/12/25 09:36:35;;;;;;;13.50;12.20;;;17.30;99.90;;;;;;4989423;28;20679;-66
2022/12/25 09:39:01;;;;;;;91.23;21.00;;;17.20;99.90;;;;;;4989262;28;20459;-68
2022/12/25 09:41:37;;;;;;;15.17;12.90;;;17.70;99.90;;;;;;4987155;28;20828;-65
2022/12/25 09:44:05;;;;;;;22.50;13.50;;;16.50;99.90;;;;;;4986726;28;20542;-64
2022/12/25 09:46:40;;;;;;;43.93;14.20;;;16.30;99.90;;;;;;4987289;28;20432;-65
2022/12/25 09:49:54;;;;;;;47.87;16.03;;;16.40;99.90;;;;;;4981114;28;20431;-66
2022/12/25 09:52:33;;;;;;;28.63;13.80;;;16.70;99.90;;;;;;4976674;28;20471;-66
2022/12/25 09:55:18;;;;;;;52.33;14.70;;;16.50;99.90;;;;;;4986905;28;20431;-65
2022/12/25 09:57:45;;;;;;;71.50;15.43;;;15.80;99.90;;;;;;4986527;28;20463;-66
2022/12/25 10:00:17;;;;;;;74.70;15.90;;;15.50;99.90;;;;;;4990170;28;20431;-66
2022/12/25 10:02:49;;;;;;;216.47;29.57;;;15.40;99.90;;;;;;4989141;28;20487;-66
2022/12/25 10:05:45;;;;;;;154.77;25.53;;;15.30;1.00;;;;;;4966296;28;20812;-66
2022/12/25 10:08:34;;;;;;;51.53;13.83;;;15.40;1.00;;;;;;4995082;28;20432;-67
2022/12/25 10:11:14;;;;;;;12.73;10.50;;;15.70;1.00;;;;;;4986015;28;20845;-67
2022/12/25 10:13:59;;;;;;;10.27;8.77;;;15.80;1.00;;;;;;4983617;28;20551;-66
2022/12/25 10:16:46;;;;;;;25.13;10.10;;;16.10;99.90;;;;;;4985794;28;20698;-66
2022/12/25 10:19:26;;;;;;;44.40;12.47;;;16.30;99.90;;;;;;4988253;28;20408;-67
2022/12/25 10:21:57;;;;;;;23.77;10.33;;;16.40;99.90;;;;;;4985773;28;20955;-66
2022/12/25 10:24:43;;;;;;;77.77;14.53;;;16.20;99.90;;;;;;4986932;28;20444;-66
2022/12/25 10:27:39;;;;;;;73.33;14.43;;;16.50;99.90;;;;;;4987207;28;20418;-65
2022/12/25 10:30:26;;;;;;;45.33;10.60;;;16.70;99.90;;;;;;4986401;28;20459;-64
2022/12/25 10:32:53;;;;;;;32.10;11.10;;;16.80;99.90;;;;;;4975479;28;20859;-64
2022/12/25 10:35:23;;;;;;;13.03;8.07;;;16.90;99.90;;;;;;4998535;28;20466;-64
2022/12/25 10:37:57;;;;;;;28.63;9.40;;;16.80;99.90;;;;;;4986135;28;20515;-65
2022/12/25 10:40:31;;;;;;;17.47;8.67;;;16.60;99.90;;;;;;4986172;28;20518;-65
2022/12/25 10:43:11;;;;;;;15.00;7.70;;;16.50;99.90;;;;;;4984910;28;20452;-65
2022/12/25 10:45:48;;;;;;;8.67;7.10;;;16.50;99.90;;;;;;4986292;28;20487;-65
2022/12/25 10:48:24;;;;;;;10.83;7.10;;;16.40;99.90;;;;;;4987842;28;20427;-66
2022/12/25 10:50:51;;;;;;;9.30;6.30;;;16.20;99.90;;;;;;4985015;28;20430;-66
2022/12/25 10:53:27;;;;;;;12.30;8.27;;;16.20;99.90;;;;;;4986238;28;20450;-66
2022/12/25 10:56:00;;;;;;;6.30;5.70;;;16.10;99.90;;;;;;4985607;28;20462;-64
2022/12/25 10:58:27;;;;;;;15.80;9.50;;;15.90;99.90;;;;;;4985961;28;20986;-64
2022/12/25 11:00:58;;;;;;;13.77;7.20;;;15.90;99.90;;;;;;4985090;28;20420;-64
2022/12/25 11:03:29;;;;;;;18.87;7.80;;;15.90;99.90;;;;;;4986313;28;20469;-64
2022/12/25 11:05:55;;;;;;;17.03;6.33;;;15.90;99.90;;;;;;4984318;28;20459;-64
2022/12/25 11:08:23;;;;;;;20.23;8.30;;;16.00;99.90;;;;;;4985479;28;20436;-63
2022/12/25 11:10:58;;;;;;;11.33;7.80;;;16.10;99.90;;;;;;4962679;28;20466;-62
2022/12/25 11:13:29;;;;;;;60.80;13.53;;;16.10;99.90;;;;;;4981784;28;20467;-64
2022/12/25 11:16:27;;;;;;;119.80;20.83;;;16.00;99.90;;;;;;4983814;28;20587;-64
2022/12/25 11:18:53;;;;;;;187.83;27.87;;;15.80;99.90;;;;;;4981600;28;20467;-65
2022/12/25 11:21:35;;;;;;;57.37;10.40;;;15.90;99.90;;;;;;4983404;28;20475;-67
2022/12/25 11:24:04;;;;;;;81.60;14.57;;;15.80;99.90;;;;;;4985563;28;20495;-67
2022/12/25 11:26:47;;;;;;;15.80;7.30;;;15.70;99.90;;;;;;4981456;28;20508;-67
2022/12/25 11:29:35;;;;;;;43.73;12.13;;;15.40;1.00;;;;;;4988132;28;20434;-66
2022/12/25 11:32:03;;;;;;;55.53;10.67;;;15.40;1.00;;;;;;4985174;28;20464;-64
2022/12/25 11:34:39;;;;;;;30.43;9.00;;;15.30;1.00;;;;;;4987236;28;20439;-66
2022/12/25 11:37:20;;;;;;;36.03;8.13;;;15.30;1.00;;;;;;4987061;28;20801;-66
2022/12/25 11:39:46;;;;;;;30.70;10.50;;;15.30;1.00;;;;;;4984554;28;20808;-66
2022/12/25 11:42:35;;;;;;;36.40;7.43;;;15.30;1.00;;;;;;4983329;28;20476;-66
2022/12/25 11:45:11;;;;;;;31.73;6.93;;;15.50;1.00;;;;;;4993226;28;20594;-66
2022/12/25 11:47:54;;;;;;;50.07;10.60;;;15.30;1.00;;;;;;4991310;28;20530;-67
2022/12/25 11:50:30;;;;;;;18.60;4.87;;;14.90;1.00;;;;;;4983616;28;21321;-66
2022/12/25 11:53:01;;;;;;;65.27;10.73;;;15.10;1.00;;;;;;4982287;28;20476;-66
2022/12/25 11:55:47;;;;;;;323.97;39.67;;;15.20;1.00;;;;;;4985441;28;20628;-66
2022/12/25 11:58:40;;;;;;;231.50;25.93;;;15.40;1.00;;;;;;4984588;28;20435;-66
2022/12/25 12:01:40;;;;;;;77.50;11.93;;;15.40;1.00;;;;;;4980482;28;20439;-66
2022/12/25 12:04:14;;;;;;;56.33;10.60;;;15.50;1.00;;;;;;4986718;28;20450;-65
2022/12/25 12:07:16;;;;;;;30.67;6.97;;;15.80;1.00;;;;;;4988560;28;20428;-66
2022/12/25 12:09:57;;;;;;;10.80;4.30;;;15.90;1.00;;;;;;4985420;28;20519;-65
2022/12/25 12:13:01;;;;;;;8.13;3.30;;;16.00;99.90;;;;;;4984861;28;20462;-66
2022/12/25 12:15:31;;;;;;;9.70;3.87;;;16.00;99.90;;;;;;4970890;28;20434;-66
2022/12/25 12:18:08;;;;;;;11.63;4.00;;;16.20;99.90;;;;;;4994748;28;20432;-66
2022/12/25 12:20:35;;;;;;;58.80;8.57;;;16.10;99.90;;;;;;5003543;28;20496;-65
2022/12/25 12:23:12;;;;;;;26.57;6.10;;;16.10;99.90;;;;;;5003792;28;20440;-65
2022/12/25 12:25:40;;;;;;;8.70;3.40;;;16.10;99.90;;;;;;4988116;28;20404;-65
2022/12/25 12:28:19;;;;;;;6.53;3.93;;;16.00;99.90;;;;;;4987511;28;20419;-65
2022/12/25 12:31:02;;;;;;;21.90;4.57;;;16.00;99.90;;;;;;4986715;28;20423;-65
2022/12/25 12:33:38;;;;;;;6.63;2.80;;;15.80;99.90;;;;;;4987199;28;20551;-64
2022/12/25 12:36:05;;;;;;;21.47;5.30;;;15.80;99.90;;;;;;4987450;28;20642;-64
2022/12/25 12:38:33;;;;;;;9.57;3.67;;;15.90;99.90;;;;;;4986183;28;20982;-62
2022/12/25 12:41:05;;;;;;;41.77;6.70;;;15.90;99.90;;;;;;4986950;28;20431;-66
2022/12/25 12:43:45;;;;;;;11.63;4.20;;;16.00;99.90;;;;;;4987011;28;20977;-66
2022/12/25 12:46:20;;;;;;;11.90;2.97;;;15.90;99.90;;;;;;4987471;28;20432;-66
2022/12/25 12:48:51;;;;;;;11.20;4.03;;;15.80;99.90;;;;;;4985158;28;20453;-64
2022/12/25 12:51:30;;;;;;;10.73;3.83;;;15.80;99.90;;;;;;4986611;28;20438;-65
2022/12/25 12:54:24;;;;;;;4.23;3.00;;;15.70;99.90;;;;;;4987254;28;20451;-64
2022/12/25 12:57:01;;;;;;;7.47;3.63;;;15.80;99.90;;;;;;4991113;28;20487;-64
2022/12/25 12:59:37;;;;;;;24.87;6.10;;;15.90;99.90;;;;;;4971973;28;20802;-65
2022/12/25 13:02:24;;;;;;;79.10;11.53;;;15.90;99.90;;;;;;4985149;28;20445;-65
2022/12/25 13:05:00;;;;;;;65.90;11.43;;;15.90;99.90;;;;;;4989458;28;20463;-65
2022/12/25 13:07:44;;;;;;;110.77;14.37;;;15.90;99.90;;;;;;4988881;28;20546;-65
2022/12/25 13:10:20;;;;;;;40.60;8.13;;;15.80;99.90;;;;;;4988906;28;20503;-65
2022/12/25 13:12:58;;;;;;;301.27;32.33;;;15.70;99.90;;;;;;4984504;28;20500;-64
2022/12/25 13:15:28;;;;;;;262.70;29.40;;;15.70;1.00;;;;;;4983687;28;20470;-65
2022/12/25 13:17:59;;;;;;;159.73;23.53;;;15.70;1.00;;;;;;4983537;28;20480;-65
2022/12/25 13:20:43;;;;;;;102.53;14.70;;;15.60;1.00;;;;;;4989689;28;20979;-65
2022/12/25 13:23:27;;;;;;;54.03;7.63;;;15.40;1.00;;;;;;4990606;28;20458;-65
2022/12/25 13:25:59;;;;;;;16.17;4.00;;;15.50;1.00;;;;;;4998591;28;20794;-64
2022/12/25 13:28:33;;;;;;;55.07;7.60;;;15.60;1.00;;;;;;5000403;28;20454;-64
2022/12/25 13:31:02;;;;;;;17.30;5.10;;;15.60;1.00;;;;;;4995057;28;20435;-63
2022/12/25 13:33:28;;;;;;;25.93;5.57;;;16.00;99.90;;;;;;4989640;28;20444;-64
2022/12/25 13:35:54;;;;;;;40.03;6.53;;;16.00;1.00;;;;;;4987922;28;20463;-65
2022/12/25 13:38:22;;;;;;;49.50;7.93;;;15.90;1.00;;;;;;4988338;28;20247;-63
2022/12/25 13:43:39;;;;;;;12.03;3.80;;;15.60;1.00;;;;;;4986738;28;20455;-65
2022/12/25 13:46:05;;;;;;;20.57;4.77;;;15.30;1.00;;;;;;4989884;28;20920;-66
2022/12/25 13:48:31;;;;;;;52.13;9.93;;;15.30;1.00;;;;;;4989931;28;20857;-65
2022/12/25 13:50:59;;;;;;;43.97;10.33;;;15.20;1.00;;;;;;4989232;28;20490;-66
2022/12/25 13:53:24;;;;;;;45.50;8.20;;;15.10;1.00;;;;;;4988646;28;20483;-66
2022/12/25 13:55:53;;;;;;;34.60;6.20;;;15.40;99.90;;;;;;4988101;28;20982;-64
2022/12/25 13:58:32;;;;;;;30.90;7.13;;;15.80;99.90;;;;;;4988651;28;20196;-61
2022/12/25 14:00:59;;;;;;;7.73;4.10;;;15.40;1.00;;;;;;4991388;28;20428;-63
2022/12/25 14:03:34;;;;;;;13.40;4.30;;;15.30;1.00;;;;;;4990969;28;20979;-64
2022/12/25 14:06:15;;;;;;;45.73;9.23;;;15.20;1.00;;;;;;4987018;28;20442;-65
2022/12/25 14:08:41;;;;;;;96.33;12.57;;;15.10;1.00;;;;;;4988467;28;20471;-65
2022/12/25 14:11:09;;;;;;;23.10;5.73;;;15.10;1.00;;;;;;4988645;28;20463;-65
2022/12/25 14:13:39;;;;;;;11.90;5.13;;;15.10;1.00;;;;;;4989824;28;20475;-64
2022/12/25 14:16:06;;;;;;;23.70;7.20;;;15.00;1.00;;;;;;4984839;28;20456;-64
2022/12/25 14:18:32;;;;;;;42.93;9.40;;;15.00;1.00;;;;;;4989473;28;20443;-64
2022/12/25 14:21:04;;;;;;;60.43;10.50;;;14.90;1.00;;;;;;4996993;28;20532;-64
2022/12/25 14:23:40;;;;;;;55.63;8.80;;;14.90;1.00;;;;;;4987517;28;20448;-64
2022/12/25 14:26:06;;;;;;;73.53;11.20;;;14.80;1.00;;;;;;4984771;28;20520;-64
2022/12/25 14:28:33;;;;;;;14.63;5.33;;;14.80;1.00;;;;;;4987485;28;21045;-64
2022/12/25 14:31:03;;;;;;;50.20;12.03;;;14.70;1.00;;;;;;5000004;28;20434;-65
2022/12/25 14:33:37;;;;;;;17.73;5.70;;;14.60;1.00;;;;;;4988857;28;20539;-64
2022/12/25 14:36:03;;;;;;;5.77;4.30;;;14.50;49.80;;;;;;4973438;28;20551;-64
2022/12/25 14:38:33;;;;;;;14.07;5.57;;;14.40;99.90;;;;;;4989129;28;20515;-64
2022/12/25 14:40:59;;;;;;;5.37;4.80;;;14.30;99.90;;;;;;4987037;28;20535;-64
2022/12/25 14:43:26;;;;;;;19.53;6.30;;;14.20;1.00;;;;;;4985877;28;20535;-63
2022/12/25 14:46:00;;;;;;;13.73;6.10;;;14.10;1.00;;;;;;4985473;28;20276;-64
2022/12/25 14:48:30;;;;;;;7.97;6.30;;;14.00;1.00;;;;;;4987600;28;20463;-65